Time;durP1;ratioP1;P1;durP2;ratioP2;P2;SDS_P1;SDS_P2;PMS_P1;PMS_P2;Temp;Humidity;BMP_temperature;BMP_pressure;BME280_temperature;BME280_humidity;BME280_pressure;Samples;Min_cycle;Max_cycle;Signal;HPM_P1;HPM_P2
2023/03/22 00:00:52;;;;;;;14.43;8.57;;;10.60;99.90;;;;;;6282411;22;20011;-96
2023/03/22 00:03:18;;;;;;;15.90;7.13;;;10.50;99.90;;;;;;6309386;22;20043;-96
2023/03/22 00:05:44;;;;;;;17.92;7.28;;;10.50;99.90;;;;;;6311183;22;20043;-96
2023/03/22 00:08:12;;;;;;;14.52;7.57;;;10.50;99.90;;;;;;6283830;22;20144;-96
2023/03/22 00:10:38;;;;;;;14.30;7.43;;;10.50;99.90;;;;;;6311428;22;20041;-96
2023/03/22 00:13:06;;;;;;;13.65;7.25;;;10.50;99.90;;;;;;6284025;22;20400;-96
2023/03/22 00:15:32;;;;;;;16.42;8.23;;;10.50;99.90;;;;;;6283586;22;20447;-96
2023/03/22 00:17:58;;;;;;;11.65;7.28;;;10.50;99.90;;;;;;6311591;22;20007;-96
2023/03/22 00:20:32;;;;;;;13.90;6.93;;;10.50;99.90;;;;;;6283531;22;20012;-96
2023/03/22 00:22:59;;;;;;;16.15;6.90;;;10.40;99.90;;;;;;6284287;22;20444;-96
2023/03/22 00:25:25;;;;;;;13.57;7.00;;;10.40;99.90;;;;;;6283756;22;20007;-96
2023/03/22 00:27:50;;;;;;;13.48;7.35;;;10.50;99.90;;;;;;6311840;22;20089;-96
2023/03/22 00:30:17;;;;;;;14.18;6.72;;;10.40;99.90;;;;;;6283486;22;20339;-96
2023/03/22 00:32:42;;;;;;;13.68;6.80;;;10.40;99.90;;;;;;6310689;22;20064;-96
2023/03/22 00:35:09;;;;;;;14.20;6.60;;;10.40;99.90;;;;;;6311222;22;20079;-96
2023/03/22 00:37:37;;;;;;;15.30;6.97;;;10.40;99.90;;;;;;6283994;22;20349;-96
2023/03/22 00:40:12;;;;;;;15.65;7.38;;;10.30;99.90;;;;;;6311024;22;20016;-96
2023/03/22 00:42:39;;;;;;;17.08;6.70;;;10.40;99.90;;;;;;6283737;22;20359;-96
2023/03/22 00:45:08;;;;;;;18.70;6.25;;;10.30;99.90;;;;;;6311035;22;20025;-96
2023/03/22 00:47:34;;;;;;;12.52;6.15;;;10.30;99.90;;;;;;6283160;22;20007;-96
2023/03/22 00:49:59;;;;;;;13.32;6.03;;;10.30;99.90;;;;;;6283518;22;20152;-96
2023/03/22 00:52:26;;;;;;;12.60;5.80;;;10.30;99.90;;;;;;6283674;22;20475;-96
2023/03/22 00:54:51;;;;;;;11.57;6.60;;;10.30;99.90;;;;;;6310479;22;20505;-96
2023/03/22 00:57:17;;;;;;;12.55;5.57;;;10.20;99.90;;;;;;6283086;22;20019;-96
2023/03/22 00:59:43;;;;;;;14.30;6.90;;;10.20;99.90;;;;;;6310970;22;20068;-96
2023/03/22 01:02:12;;;;;;;15.40;4.80;;;10.30;99.90;;;;;;6283406;22;20015;-96
2023/03/22 01:04:44;;;;;;;12.95;5.45;;;10.20;99.90;;;;;;6283843;22;20015;-96
2023/03/22 01:07:10;;;;;;;11.98;4.90;;;10.20;99.90;;;;;;6310256;22;20447;-96
2023/03/22 01:09:36;;;;;;;13.38;5.20;;;10.20;99.90;;;;;;6283657;22;20011;-96
2023/03/22 01:12:01;;;;;;;12.18;5.72;;;10.20;99.90;;;;;;6283413;22;20026;-96
2023/03/22 01:14:27;;;;;;;14.02;5.05;;;10.20;99.90;;;;;;6310910;22;20047;-96
2023/03/22 01:16:56;;;;;;;13.27;4.47;;;10.10;99.90;;;;;;6310181;22;20026;-96
2023/03/22 01:19:26;;;;;;;11.45;5.25;;;10.20;99.90;;;;;;6310500;22;20137;-96
2023/03/22 01:21:52;;;;;;;11.55;4.35;;;10.10;99.90;;;;;;6283174;22;20019;-96
2023/03/22 01:24:18;;;;;;;13.93;4.50;;;10.10;99.90;;;;;;6283550;22;20142;-96
2023/03/22 01:26:44;;;;;;;11.25;4.57;;;10.10;99.90;;;;;;6283584;22;20015;-96
2023/03/22 01:29:10;;;;;;;13.32;3.72;;;10.10;99.90;;;;;;6310440;22;20438;-96
2023/03/22 01:31:35;;;;;;;12.05;4.55;;;10.10;99.90;;;;;;6283006;22;20076;-96
2023/03/22 01:34:01;;;;;;;11.27;3.55;;;10.10;99.90;;;;;;6283125;22;20347;-96
2023/03/22 01:36:27;;;;;;;8.85;3.63;;;10.10;99.90;;;;;;6310236;22;20082;-96
2023/03/22 01:38:52;;;;;;;10.75;3.30;;;10.00;99.90;;;;;;6282831;22;20023;-96
2023/03/22 01:41:18;;;;;;;15.40;4.40;;;10.10;99.90;;;;;;6310090;22;20019;-95
2023/03/22 01:43:44;;;;;;;13.55;3.95;;;10.10;99.90;;;;;;6283295;22;20016;-96
2023/03/22 01:46:09;;;;;;;10.27;3.47;;;10.00;99.90;;;;;;6282964;22;20019;-96
2023/03/22 01:48:44;;;;;;;11.98;3.40;;;10.00;99.90;;;;;;6282849;22;20439;-95
2023/03/22 01:51:21;;;;;;;12.18;3.80;;;10.00;99.90;;;;;;6282714;22;20020;-96
2023/03/22 01:53:54;;;;;;;9.07;3.60;;;10.00;99.90;;;;;;6282963;22;20332;-96
2023/03/22 01:56:24;;;;;;;11.57;3.20;;;10.00;99.90;;;;;;6283132;22;20016;-96
2023/03/22 01:58:52;;;;;;;11.77;3.30;;;10.00;99.90;;;;;;6282893;22;20676;-96
2023/03/22 02:01:18;;;;;;;12.20;3.50;;;10.10;99.90;;;;;;6309847;22;20007;-94
2023/03/22 02:04:03;;;;;;;10.02;3.13;;;10.00;99.90;;;;;;6283330;22;20011;-96
2023/03/22 02:06:31;;;;;;;11.30;3.15;;;10.00;99.90;;;;;;6283146;22;20053;-95
2023/03/22 02:08:57;;;;;;;10.32;2.78;;;10.00;99.90;;;;;;6310388;22;20011;-96
2023/03/22 02:11:37;;;;;;;11.40;3.22;;;10.00;99.90;;;;;;6310196;22;20015;-96
2023/03/22 02:14:26;;;;;;;14.80;3.70;;;10.00;99.90;;;;;;6282848;22;20317;-96
2023/03/22 02:17:18;;;;;;;11.45;3.30;;;10.00;99.90;;;;;;6282757;22;20068;-96
2023/03/22 02:20:09;;;;;;;10.52;2.85;;;10.00;99.90;;;;;;6283382;22;20028;-96
2023/03/22 02:22:57;;;;;;;9.60;2.80;;;10.00;99.90;;;;;;6282487;22;20034;-95
2023/03/22 02:25:22;;;;;;;11.25;2.33;;;9.90;99.90;;;;;;6282871;22;20011;-95
2023/03/22 02:28:03;;;;;;;15.07;3.05;;;9.90;99.90;;;;;;6282451;22;20015;-96
2023/03/22 02:30:50;;;;;;;10.40;2.47;;;9.90;99.90;;;;;;6309907;22;20374;-94
2023/03/22 02:33:40;;;;;;;11.98;2.55;;;9.90;99.90;;;;;;6309435;22;20050;-96
2023/03/22 02:36:33;;;;;;;13.43;2.38;;;9.90;99.90;;;;;;6309773;22;20022;-95
2023/03/22 02:39:30;;;;;;;11.00;2.47;;;9.90;99.90;;;;;;6282519;22;20339;-95
2023/03/22 02:42:07;;;;;;;8.85;2.17;;;9.90;99.90;;;;;;6309868;22;20019;-93
2023/03/22 02:44:36;;;;;;;11.57;2.63;;;9.90;99.90;;;;;;6282673;22;20022;-96
2023/03/22 02:47:42;;;;;;;12.70;2.33;;;9.90;99.90;;;;;;6282713;22;20019;-96
2023/03/22 02:50:18;;;;;;;12.45;2.58;;;9.90;99.90;;;;;;6282593;22;20034;-96
2023/03/22 02:52:56;;;;;;;10.52;2.40;;;9.90;99.90;;;;;;6282581;22;20026;-95
2023/03/22 02:55:47;;;;;;;12.18;2.55;;;9.80;99.90;;;;;;6309515;22;20026;-96
2023/03/22 02:58:15;;;;;;;13.15;2.42;;;9.90;99.90;;;;;;6281845;22;20026;-95
2023/03/22 03:00:43;;;;;;;12.48;2.25;;;9.80;99.90;;;;;;6282252;22;20019;-96
2023/03/22 03:03:17;;;;;;;12.65;2.45;;;9.90;99.90;;;;;;6282006;22;20069;-95
2023/03/22 03:05:45;;;;;;;12.35;2.38;;;9.90;99.90;;;;;;6282297;22;20007;-96
2023/03/22 03:08:14;;;;;;;8.52;2.03;;;9.90;99.90;;;;;;6282439;22;20058;-95
2023/03/22 03:10:41;;;;;;;10.60;2.38;;;9.90;99.90;;;;;;6309562;22;20039;-96
2023/03/22 03:13:15;;;;;;;12.98;2.58;;;9.90;99.90;;;;;;6309646;22;20068;-96
2023/03/22 03:15:42;;;;;;;13.70;2.35;;;10.00;99.90;;;;;;6309719;22;20039;-95
2023/03/22 03:18:27;;;;;;;12.95;2.60;;;9.90;99.90;;;;;;6309109;22;20019;-96
2023/03/22 03:21:16;;;;;;;10.02;2.38;;;9.90;99.90;;;;;;6282597;22;20022;-95
2023/03/22 03:23:48;;;;;;;9.90;2.28;;;9.90;99.90;;;;;;6263115;22;20094;-96
2023/03/22 03:26:20;;;;;;;12.18;2.20;;;9.90;99.90;;;;;;6281874;22;20041;-95
2023/03/22 03:28:51;;;;;;;10.63;2.55;;;9.90;99.90;;;;;;6282575;22;20397;-95
2023/03/22 03:31:35;;;;;;;16.40;2.78;;;9.90;99.90;;;;;;6309171;22;20015;-95
2023/03/22 03:34:25;;;;;;;11.32;2.20;;;9.90;99.90;;;;;;6282619;22;20020;-95
2023/03/22 03:37:14;;;;;;;14.25;2.65;;;9.90;99.90;;;;;;6282092;22;20027;-95
2023/03/22 03:39:54;;;;;;;10.00;2.42;;;9.80;99.90;;;;;;6282163;22;20317;-95
2023/03/22 03:42:24;;;;;;;17.75;2.70;;;9.90;99.90;;;;;;6311405;22;20046;-94
2023/03/22 03:44:49;;;;;;;10.30;2.30;;;9.80;99.90;;;;;;6311521;22;20061;-95
2023/03/22 03:47:15;;;;;;;11.98;2.50;;;9.90;99.90;;;;;;6283081;22;20015;-96
2023/03/22 03:49:41;;;;;;;10.88;2.65;;;9.90;99.90;;;;;;6283840;22;20019;-96
2023/03/22 03:52:06;;;;;;;10.35;2.60;;;9.90;99.90;;;;;;6283956;22;20011;-95
2023/03/22 03:54:32;;;;;;;13.18;2.78;;;9.90;99.90;;;;;;6283798;22;20354;-95
2023/03/22 03:56:58;;;;;;;12.43;2.88;;;9.80;99.90;;;;;;6310919;22;20343;-96
2023/03/22 03:59:24;;;;;;;10.02;2.60;;;9.80;99.90;;;;;;6309970;22;20019;-96
2023/03/22 04:01:50;;;;;;;11.18;2.50;;;9.80;99.90;;;;;;6283140;22;20015;-96
2023/03/22 04:04:27;;;;;;;12.50;3.17;;;9.80;99.90;;;;;;6310722;22;20019;-95
2023/03/22 04:06:58;;;;;;;10.20;2.70;;;9.80;99.90;;;;;;6311047;22;20022;-95
2023/03/22 04:09:26;;;;;;;12.73;2.78;;;9.90;99.90;;;;;;6283233;22;20011;-96
2023/03/22 04:11:53;;;;;;;12.45;2.78;;;9.80;99.90;;;;;;6310898;22;20007;-95
2023/03/22 04:14:19;;;;;;;12.73;2.55;;;9.90;99.90;;;;;;6283414;22;20015;-96
2023/03/22 04:16:45;;;;;;;11.27;2.60;;;9.90;99.90;;;;;;6310765;22;20068;-94
2023/03/22 04:19:11;;;;;;;12.07;2.88;;;9.90;99.90;;;;;;6283028;22;20102;-96
2023/03/22 04:21:37;;;;;;;11.40;2.83;;;9.90;99.90;;;;;;6310851;22;20018;-95
2023/03/22 04:24:03;;;;;;;9.68;2.92;;;9.90;99.90;;;;;;6283705;22;20011;-96
2023/03/22 04:26:29;;;;;;;13.90;3.58;;;9.80;99.90;;;;;;6283091;22;20707;-96
2023/03/22 04:28:57;;;;;;;10.38;3.60;;;9.80;99.90;;;;;;6310819;22;20015;-96
2023/03/22 04:31:23;;;;;;;12.43;4.00;;;9.90;99.90;;;;;;6310335;22;20019;-96
2023/03/22 04:33:53;;;;;;;10.65;4.07;;;9.90;99.90;;;;;;6282876;22;20451;-95
2023/03/22 04:36:20;;;;;;;13.68;5.10;;;9.90;99.90;;;;;;6282380;22;20015;-95
2023/03/22 04:38:46;;;;;;;14.10;5.30;;;9.90;99.90;;;;;;6283041;22;20012;-93
2023/03/22 04:41:11;;;;;;;12.70;5.40;;;9.90;99.90;;;;;;6282959;22;20136;-96
2023/03/22 04:43:38;;;;;;;12.18;4.72;;;9.90;99.90;;;;;;6283121;22;20011;-95
2023/03/22 04:46:08;;;;;;;15.57;5.78;;;9.90;99.90;;;;;;6282928;22;20015;-95
2023/03/22 04:48:36;;;;;;;14.50;6.57;;;9.90;99.90;;;;;;6282729;22;20015;-94
2023/03/22 04:51:07;;;;;;;13.85;6.72;;;10.00;99.90;;;;;;6283197;22;20336;-95
2023/03/22 04:53:37;;;;;;;13.23;6.45;;;10.00;99.90;;;;;;6283050;22;20011;-96
2023/03/22 04:56:08;;;;;;;13.80;7.35;;;10.00;99.90;;;;;;6310033;22;20019;-95
2023/03/22 04:58:36;;;;;;;17.40;7.30;;;10.00;99.90;;;;;;6282938;22;20095;-95
2023/03/22 05:01:02;;;;;;;15.45;7.43;;;10.10;99.90;;;;;;6310253;22;20026;-96
2023/03/22 05:03:28;;;;;;;17.30;7.80;;;10.10;99.90;;;;;;6283064;22;20019;-96
2023/03/22 05:05:56;;;;;;;15.85;7.78;;;10.10;99.90;;;;;;6282310;22;20017;-96
2023/03/22 05:08:26;;;;;;;14.20;7.63;;;10.00;99.90;;;;;;6310546;22;20094;-96
2023/03/22 05:10:54;;;;;;;17.95;8.27;;;10.10;99.90;;;;;;6283053;22;20015;-95
2023/03/22 05:13:21;;;;;;;15.63;8.13;;;10.10;99.90;;;;;;6308579;22;20026;-95
2023/03/22 05:15:48;;;;;;;16.10;8.77;;;10.00;99.90;;;;;;6282943;22;20016;-96
2023/03/22 05:18:27;;;;;;;15.18;8.77;;;10.00;99.90;;;;;;6310095;22;20082;-94
2023/03/22 05:20:56;;;;;;;15.23;8.57;;;10.00;99.90;;;;;;6281618;22;20455;-93
2023/03/22 05:23:22;;;;;;;16.20;9.10;;;10.00;99.90;;;;;;6281318;22;20019;-93
2023/03/22 05:25:50;;;;;;;18.52;8.65;;;10.00;99.90;;;;;;6309059;22;20094;-92
2023/03/22 05:28:18;;;;;;;14.57;9.45;;;10.10;99.90;;;;;;6279612;22;20008;-91
2023/03/22 05:30:44;;;;;;;18.40;9.80;;;10.10;99.90;;;;;;6308208;22;20016;-90
2023/03/22 05:33:11;;;;;;;19.30;10.00;;;10.00;99.90;;;;;;6280997;22;20054;-92
2023/03/22 05:35:43;;;;;;;15.70;9.30;;;10.10;99.90;;;;;;6308661;22;20504;-94
2023/03/22 05:38:10;;;;;;;14.95;9.07;;;10.00;99.90;;;;;;6282026;22;20019;-91
2023/03/22 05:40:35;;;;;;;16.05;9.48;;;10.10;99.90;;;;;;6309255;22;20030;-94
2023/03/22 05:43:01;;;;;;;19.00;10.10;;;10.10;99.90;;;;;;6305529;22;20015;-93
2023/03/22 05:45:26;;;;;;;15.98;10.27;;;10.10;99.90;;;;;;6280252;22;20398;-94
2023/03/22 05:47:52;;;;;;;17.65;10.00;;;10.00;99.90;;;;;;6281527;22;20035;-94
2023/03/22 05:50:22;;;;;;;17.13;10.23;;;10.10;99.90;;;;;;6308757;22;20012;-93
2023/03/22 05:52:48;;;;;;;19.08;10.30;;;10.10;99.90;;;;;;6308274;22;20451;-93
2023/03/22 05:55:18;;;;;;;17.20;10.00;;;10.10;99.90;;;;;;6308709;22;20015;-94
2023/03/22 05:57:50;;;;;;;20.50;9.65;;;10.10;99.90;;;;;;6281494;22;20017;-94
2023/03/22 06:00:17;;;;;;;16.65;10.07;;;10.10;99.90;;;;;;6280389;22;20445;-95
2023/03/22 06:02:45;;;;;;;18.10;10.13;;;10.10;99.90;;;;;;6308120;22;20015;-94
2023/03/22 06:05:13;;;;;;;16.60;10.18;;;10.00;99.90;;;;;;6308509;22;20046;-93
2023/03/22 06:07:40;;;;;;;18.40;9.82;;;10.10;99.90;;;;;;6280419;22;20021;-92
2023/03/22 06:10:08;;;;;;;19.45;10.10;;;10.10;99.90;;;;;;6281041;22;20026;-94
2023/03/22 06:12:34;;;;;;;18.98;10.18;;;10.00;99.90;;;;;;6308143;22;20405;-94
2023/03/22 06:15:37;;;;;;;18.20;10.65;;;10.00;99.90;;;;;;6280589;22;20452;-94
2023/03/22 06:21:47;;;;;;;20.55;10.68;;;10.00;99.90;;;;;;6276415;22;20027;-95
2023/03/22 06:24:57;;;;;;;;;;;;;;;;;;;;;
2023/03/22 06:27:45;;;;;;;18.48;10.27;;;10.10;99.90;;;;;;6242125;22;20030;-93
2023/03/22 06:30:47;;;;;;;20.98;10.82;;;10.00;99.90;;;;;;6249132;22;20011;-93
2023/03/22 06:33:39;;;;;;;17.88;9.98;;;10.00;99.90;;;;;;6249780;22;20016;-94
2023/03/22 06:36:08;;;;;;;17.30;9.90;;;10.10;99.90;;;;;;6275498;22;20049;-95
2023/03/22 06:38:37;;;;;;;18.13;10.25;;;10.10;99.90;;;;;;6277865;22;20026;-93
2023/03/22 06:41:31;;;;;;;17.58;10.20;;;10.10;99.90;;;;;;6277954;22;20016;-94
2023/03/22 06:44:02;;;;;;;16.58;10.32;;;10.10;99.90;;;;;;6277585;22;20011;-94
2023/03/22 06:46:31;;;;;;;20.83;10.95;;;10.10;99.90;;;;;;6249716;22;20069;-94
2023/03/22 06:49:04;;;;;;;19.52;10.25;;;10.10;99.90;;;;;;6250675;22;20522;-94
2023/03/22 06:51:30;;;;;;;;;;;10.20;99.90;;;;;;6250849;22;20081;-92
2023/03/22 06:54:17;;;;;;;17.05;9.77;;;10.10;99.90;;;;;;6277940;22;19922;-93
2023/03/22 06:57:14;;;;;;;;;;;;;;;;;;;;;
2023/03/22 07:00:04;;;;;;;14.93;9.48;;;10.20;99.90;;;;;;6250534;22;20349;-94
2023/03/22 07:02:35;;;;;;;15.73;9.35;;;10.20;99.90;;;;;;6251768;22;20019;-94
2023/03/22 07:05:30;;;;;;;18.20;8.90;;;10.20;99.90;;;;;;6279070;22;20051;-93
2023/03/22 07:07:56;;;;;;;18.63;9.20;;;10.30;99.90;;;;;;6252303;22;20023;-93
2023/03/22 07:10:28;;;;;;;15.98;9.18;;;10.30;99.90;;;;;;6252003;22;20012;-94
2023/03/22 07:12:54;;;;;;;20.27;10.02;;;10.40;99.90;;;;;;6251491;22;20019;-94
2023/03/22 07:15:23;;;;;;;14.23;7.75;;;10.40;99.90;;;;;;6280676;22;20016;-92
2023/03/22 07:17:51;;;;;;;15.90;9.10;;;10.50;99.90;;;;;;6254180;22;20019;-93
2023/03/22 07:20:23;;;;;;;17.08;8.85;;;10.50;99.90;;;;;;6279878;22;20016;-90
2023/03/22 07:22:50;;;;;;;15.80;8.52;;;10.50;99.90;;;;;;6252192;22;20024;-95
2023/03/22 07:25:59;;;;;;;;;;;;;;;;;;;;;
2023/03/22 07:28:31;;;;;;;12.93;7.68;;;10.60;99.90;;;;;;6277666;22;20094;-92
2023/03/22 07:31:05;;;;;;;18.25;7.90;;;10.60;99.90;;;;;;6250614;22;20095;-94
2023/03/22 07:33:31;;;;;;;14.27;8.07;;;10.60;99.90;;;;;;6278756;22;20459;-92
2023/03/22 07:35:57;;;;;;;17.55;8.18;;;10.70;99.90;;;;;;6279708;22;20036;-95
2023/03/22 07:38:22;;;;;;;17.73;7.75;;;10.70;99.90;;;;;;6276739;22;20016;-91
2023/03/22 07:40:53;;;;;;;15.38;6.95;;;10.70;99.90;;;;;;6251217;22;20023;-90
2023/03/22 07:43:19;;;;;;;15.57;7.72;;;10.70;99.90;;;;;;6250915;22;20041;-90
2023/03/22 07:45:47;;;;;;;16.50;7.65;;;10.70;99.90;;;;;;6250232;22;20023;-93
2023/03/22 07:48:12;;;;;;;16.63;6.70;;;10.70;99.90;;;;;;6278839;22;20027;-93
2023/03/22 07:50:38;;;;;;;13.02;6.57;;;10.70;99.90;;;;;;6279229;22;20008;-92
2023/03/22 07:53:04;;;;;;;12.43;6.68;;;10.80;99.90;;;;;;6250249;22;20051;-93
2023/03/22 07:55:30;;;;;;;12.82;5.93;;;10.70;99.90;;;;;;6250702;22;20432;-92
2023/03/22 07:57:56;;;;;;;14.23;6.32;;;10.70;99.90;;;;;;6250689;22;20023;-92
2023/03/22 08:00:22;;;;;;;12.98;6.07;;;10.80;99.90;;;;;;6249561;22;20015;-94
2023/03/22 08:02:47;;;;;;;12.80;5.75;;;10.80;99.90;;;;;;6251590;22;20055;-93
2023/03/22 08:05:13;;;;;;;13.90;5.90;;;10.70;99.90;;;;;;6251052;22;20050;-91
2023/03/22 08:07:39;;;;;;;14.52;5.68;;;10.80;99.90;;;;;;6251791;22;20466;-93
2023/03/22 08:10:06;;;;;;;13.35;5.70;;;10.80;99.90;;;;;;6278634;22;20011;-91
2023/03/22 08:12:32;;;;;;;15.02;5.30;;;10.80;99.90;;;;;;6277418;22;20335;-93
2023/03/22 08:14:58;;;;;;;13.13;5.50;;;10.90;99.90;;;;;;6251441;22;20450;-91
2023/03/22 08:17:24;;;;;;;18.08;5.68;;;10.90;99.90;;;;;;6251088;22;20054;-93
2023/03/22 08:19:53;;;;;;;10.52;5.07;;;10.90;99.90;;;;;;6251443;22;20070;-93
2023/03/22 08:22:23;;;;;;;11.90;5.47;;;11.00;99.90;;;;;;6251270;22;20023;-93
2023/03/22 08:24:49;;;;;;;11.50;5.20;;;10.90;99.90;;;;;;6252445;22;20023;-95
2023/03/22 08:27:15;;;;;;;11.65;4.93;;;10.90;99.90;;;;;;6291559;22;20023;-94
2023/03/22 08:29:41;;;;;;;9.18;4.78;;;10.90;99.90;;;;;;6283287;22;20019;-94
2023/03/22 08:32:07;;;;;;;12.02;4.57;;;11.00;99.90;;;;;;6283577;22;20022;-94
2023/03/22 08:34:36;;;;;;;10.85;3.95;;;11.00;99.90;;;;;;6310306;22;20015;-93
2023/03/22 08:37:05;;;;;;;12.43;4.40;;;11.00;99.90;;;;;;6283064;22;20022;-94
2023/03/22 08:39:31;;;;;;;12.02;4.65;;;10.90;99.90;;;;;;6309994;22;20019;-93
2023/03/22 08:41:56;;;;;;;15.05;4.03;;;11.00;99.90;;;;;;6309448;22;20343;-94
2023/03/22 08:44:22;;;;;;;12.15;4.25;;;11.00;99.90;;;;;;6282949;22;20031;-91
2023/03/22 08:46:48;;;;;;;13.60;4.30;;;11.10;99.90;;;;;;6282524;22;20084;-93
2023/03/22 08:49:26;;;;;;;14.02;4.38;;;11.10;99.90;;;;;;6280890;22;20015;-93
2023/03/22 08:52:12;;;;;;;;;;;;;;;;;;;;;
2023/03/22 08:55:23;;;;;;;15.82;4.47;;;11.20;99.90;;;;;;6217614;22;20090;-93
2023/03/22 08:57:50;;;;;;;12.77;4.20;;;11.10;99.90;;;;;;6279255;22;20483;-91
2023/03/22 09:00:46;;;;;;;15.38;4.28;;;11.20;99.90;;;;;;6308832;22;20015;-92
2023/03/22 09:04:03;;;;;;;16.55;4.15;;;11.30;99.90;;;;;;6307113;22;20019;-93
2023/03/22 09:06:29;;;;;;;;;;;11.30;99.90;;;;;;6250478;22;20015;-92
2023/03/22 09:08:57;;;;;;;12.88;3.85;;;11.30;99.90;;;;;;6308645;22;19915;-91
2023/03/22 09:11:23;;;;;;;15.82;3.97;;;11.30;99.90;;;;;;6281258;22;20327;-90
2023/03/22 09:14:39;;;;;;;12.18;3.97;;;11.40;99.90;;;;;;6308921;22;20047;-91
2023/03/22 09:17:06;;;;;;;10.98;3.50;;;11.40;99.90;;;;;;6257659;22;20026;-92
2023/03/22 09:19:32;;;;;;;15.73;3.88;;;11.40;99.90;;;;;;6289985;22;20078;-92
2023/03/22 09:21:58;;;;;;;14.98;3.88;;;11.40;99.90;;;;;;6280999;22;20051;-91
2023/03/22 09:24:24;;;;;;;15.00;3.60;;;11.40;99.90;;;;;;6308254;22;20439;-94
2023/03/22 09:26:57;;;;;;;12.30;3.70;;;11.40;99.90;;;;;;6308663;22;20069;-93
2023/03/22 09:29:23;;;;;;;12.35;3.80;;;11.50;99.90;;;;;;6281765;22;20012;-92
2023/03/22 09:31:49;;;;;;;13.50;3.63;;;11.50;99.90;;;;;;6308937;22;20082;-92
2023/03/22 09:34:15;;;;;;;11.70;3.42;;;11.50;99.90;;;;;;6281754;22;20460;-92
2023/03/22 09:37:02;;;;;;;13.05;3.50;;;11.50;99.90;;;;;;6280910;22;20022;-92
2023/03/22 09:39:37;;;;;;;14.48;3.65;;;11.50;99.90;;;;;;6309063;22;20407;-94
2023/03/22 09:42:06;;;;;;;15.15;3.40;;;11.50;99.90;;;;;;6282106;22;20040;-93
2023/03/22 09:44:40;;;;;;;12.38;3.13;;;11.50;99.90;;;;;;6281622;22;20022;-93
2023/03/22 09:47:07;;;;;;;;;;;11.50;99.90;;;;;;6281556;22;20015;-93
2023/03/22 09:49:38;;;;;;;10.40;3.03;;;11.40;99.90;;;;;;6282149;22;19989;-94
2023/03/22 09:52:33;;;;;;;14.25;5.28;;;11.50;99.90;;;;;;6308697;22;20082;-93
2023/03/22 09:55:24;;;;;;;13.73;3.97;;;11.50;99.90;;;;;;6308790;22;20443;-95
2023/03/22 09:58:20;;;;;;;14.30;3.92;;;11.50;99.90;;;;;;6281254;22;20023;-94
2023/03/22 10:00:57;;;;;;;13.18;3.83;;;11.50;99.90;;;;;;6281653;22;20466;-93
2023/03/22 10:03:44;;;;;;;13.93;4.35;;;11.50;99.90;;;;;;6280479;22;20023;-93
2023/03/22 10:06:21;;;;;;;12.27;3.40;;;11.50;99.90;;;;;;6307701;22;20022;-93
2023/03/22 10:09:15;;;;;;;11.70;3.00;;;11.50;99.90;;;;;;6281594;22;20026;-91
2023/03/22 10:12:04;;;;;;;9.18;3.13;;;11.40;99.90;;;;;;6309011;22;20019;-93
2023/03/22 10:14:57;;;;;;;11.52;3.20;;;11.40;99.90;;;;;;6281436;22;20094;-92
2023/03/22 10:17:25;;;;;;;15.05;3.70;;;11.40;99.90;;;;;;6280929;22;20352;-93
2023/03/22 10:20:05;;;;;;;11.88;3.42;;;11.40;99.90;;;;;;6280881;22;20022;-94
2023/03/22 10:22:35;;;;;;;8.48;2.97;;;11.30;99.90;;;;;;6281051;22;20029;-93
2023/03/22 10:25:03;;;;;;;9.93;3.03;;;11.30;99.90;;;;;;6309143;22;20015;-93
2023/03/22 10:27:30;;;;;;;13.85;3.40;;;11.30;99.90;;;;;;6307756;22;20011;-93
2023/03/22 10:30:05;;;;;;;14.93;3.30;;;11.30;99.90;;;;;;6281633;22;20023;-93
2023/03/22 10:32:45;;;;;;;13.52;3.40;;;11.30;99.90;;;;;;6279963;22;20015;-94
2023/03/22 10:35:14;;;;;;;11.38;2.85;;;11.30;99.90;;;;;;6308100;22;20009;-94
2023/03/22 10:37:41;;;;;;;10.57;3.10;;;11.30;99.90;;;;;;6282382;22;20015;-94
2023/03/22 10:40:23;;;;;;;11.23;3.20;;;11.30;99.90;;;;;;6284170;22;20015;-96
2023/03/22 10:43:17;;;;;;;11.18;2.95;;;11.20;99.90;;;;;;6284676;22;20046;-96
2023/03/22 10:46:06;;;;;;;;;;;;;;;;;;;;;
2023/03/22 10:49:15;;;;;;;11.57;3.35;;;11.30;99.90;;;;;;6308861;22;20014;-96
2023/03/22 10:51:49;;;;;;;11.13;3.20;;;11.20;99.90;;;;;;6301368;22;20015;-96
2023/03/22 10:54:20;;;;;;;11.73;3.50;;;11.20;99.90;;;;;;6261384;22;20451;-94
2023/03/22 10:56:48;;;;;;;14.10;3.28;;;11.20;99.90;;;;;;6283704;22;20016;-95
2023/03/22 10:59:57;;;;;;;11.75;3.15;;;11.20;99.90;;;;;;6292963;22;20153;-96
2023/03/22 11:02:26;;;;;;;7.97;3.10;;;11.20;99.90;;;;;;6192144;23;20073;-96
2023/03/22 11:05:24;;;;;;;11.48;3.53;;;11.20;99.90;;;;;;6296251;22;20019;-95
2023/03/22 11:18:03;;;;;;;8.77;3.08;;;11.10;99.90;;;;;;6287069;22;20019;-96
2023/03/22 11:20:30;;;;;;;10.32;3.25;;;11.10;99.90;;;;;;6279449;22;20531;-93
2023/03/22 11:23:11;;;;;;;;;;;;;;;;;;;;;
2023/03/22 11:59:09;;;;;;;10.10;2.33;;;11.10;99.90;;;;;;6287656;22;20015;-95
2023/03/22 13:28:22;;;;;;;9.27;3.00;;;11.10;99.90;;;;;;6249374;22;20032;31
2023/03/22 13:31:40;;;;;;;7.63;3.30;;;11.10;99.90;;;;;;6275059;22;20057;-94
2023/03/22 13:38:10;;;;;;;12.50;4.50;;;11.10;99.90;;;;;;6033045;23;20094;-95
2023/03/22 13:40:46;;;;;;;10.32;3.42;;;11.10;99.90;;;;;;6087611;23;20073;-92
2023/03/22 13:43:35;;;;;;;9.00;3.35;;;11.10;99.90;;;;;;6219369;23;20012;-94
2023/03/22 13:46:16;;;;;;;10.50;3.85;;;11.10;99.90;;;;;;6216380;23;20023;-92
2023/03/22 13:48:51;;;;;;;9.68;3.65;;;11.10;99.90;;;;;;6219041;23;20013;-92
2023/03/22 13:51:24;;;;;;;7.65;3.28;;;11.10;99.90;;;;;;6242526;23;20340;-92
2023/03/22 13:54:11;;;;;;;10.50;3.40;;;11.10;99.90;;;;;;6218563;23;20030;-93
2023/03/22 13:56:42;;;;;;;10.57;3.25;;;11.00;99.90;;;;;;6245319;23;20016;-96
2023/03/22 13:59:17;;;;;;;11.00;3.58;;;11.10;99.90;;;;;;6217322;23;20090;-92
2023/03/22 14:02:10;;;;;;;10.25;3.53;;;11.10;99.90;;;;;;6245121;23;20056;-92
2023/03/22 14:04:50;;;;;;;9.82;3.38;;;11.00;99.90;;;;;;6244839;23;20022;-91
2023/03/22 14:07:43;;;;;;;9.93;3.42;;;11.00;99.90;;;;;;6243097;23;20020;-93
2023/03/22 14:10:25;;;;;;;10.32;3.83;;;11.00;99.90;;;;;;6244633;23;20052;-93
2023/03/22 14:13:29;;;;;;;8.85;3.72;;;11.00;99.90;;;;;;6245633;23;20004;-92
2023/03/22 14:16:07;;;;;;;8.50;3.72;;;11.00;99.90;;;;;;6191858;23;20464;-93
2023/03/22 14:18:35;;;;;;;11.55;3.75;;;11.00;99.90;;;;;;6218685;23;20413;-93
2023/03/22 14:21:06;;;;;;;8.75;3.70;;;11.00;99.90;;;;;;6219289;23;20043;-94
2023/03/22 14:23:39;;;;;;;9.05;3.83;;;11.00;99.90;;;;;;6246076;23;20457;-93
2023/03/22 14:26:13;;;;;;;10.07;3.72;;;11.00;99.90;;;;;;6219242;23;20016;-93
2023/03/22 14:28:39;;;;;;;9.05;3.63;;;11.00;99.90;;;;;;6211185;23;20063;-92
2023/03/22 14:31:38;;;;;;;14.82;3.67;;;11.00;99.90;;;;;;6189853;23;20021;-95
2023/03/22 14:34:07;;;;;;;11.45;4.10;;;11.00;99.90;;;;;;6123409;23;20016;-91
2023/03/22 14:37:07;;;;;;;9.70;3.88;;;11.00;99.90;;;;;;6217255;23;20113;-95
2023/03/22 14:43:30;;;;;;;11.75;4.47;;;11.00;99.90;;;;;;6144106;23;20021;-91
2023/03/22 14:46:21;;;;;;;11.90;4.25;;;11.00;99.90;;;;;;6215740;23;20384;-91
2023/03/22 14:49:27;;;;;;;8.88;3.92;;;11.00;99.90;;;;;;6189888;23;20016;-92
2023/03/22 14:51:53;;;;;;;10.98;3.70;;;11.00;99.90;;;;;;6218333;23;20017;-93
2023/03/22 14:54:25;;;;;;;9.85;3.75;;;11.00;99.90;;;;;;6189463;23;20016;-91
2023/03/22 14:56:51;;;;;;;10.25;4.05;;;11.10;99.90;;;;;;6216276;23;20020;-93
2023/03/22 14:59:19;;;;;;;7.78;3.53;;;11.00;99.90;;;;;;6216515;23;20088;-95
2023/03/22 15:01:52;;;;;;;9.27;3.80;;;11.10;99.90;;;;;;6215906;23;20012;-94
2023/03/22 15:04:25;;;;;;;10.38;4.10;;;11.10;99.90;;;;;;6215858;23;20020;-94
2023/03/22 15:07:01;;;;;;;11.25;3.90;;;11.00;99.90;;;;;;6189433;23;20396;-94
2023/03/22 15:10:19;;;;;;;11.30;4.00;;;11.00;99.90;;;;;;6216323;23;20016;-96
2023/03/22 15:12:49;;;;;;;11.20;4.32;;;11.00;99.90;;;;;;6129638;23;20045;-93
2023/03/22 15:15:27;;;;;;;8.15;3.88;;;11.10;99.90;;;;;;6216399;23;20016;-94
2023/03/22 15:18:00;;;;;;;10.07;3.92;;;11.00;99.90;;;;;;6217386;23;20023;-94
2023/03/22 15:20:49;;;;;;;9.73;3.80;;;11.10;99.90;;;;;;6173386;23;20020;-94
2023/03/22 15:23:18;;;;;;;8.50;3.80;;;11.10;99.90;;;;;;6189472;23;20052;-95
2023/03/22 15:26:00;;;;;;;;;;;;;;;;;;;;;
2023/03/22 15:32:42;;;;;;;8.20;3.72;;;11.10;99.90;;;;;;6192117;23;20021;-94
2023/03/22 15:35:31;;;;;;;11.50;4.10;;;11.10;99.90;;;;;;6129217;23;20378;-95
2023/03/22 15:38:35;;;;;;;11.82;4.25;;;11.10;99.90;;;;;;6216127;23;20035;-95
2023/03/22 15:41:44;;;;;;;10.27;3.83;;;11.10;99.90;;;;;;6187015;23;20337;-93
2023/03/22 15:44:26;;;;;;;9.68;4.03;;;11.10;99.90;;;;;;6267078;22;20019;-94
2023/03/22 15:47:24;;;;;;;10.02;4.13;;;11.10;99.90;;;;;;6252986;22;20024;-94
2023/03/22 15:50:07;;;;;;;;;;;;;;;;;;;;;